UAE719 EBBR-OMDB
Flight info
| Callsign | UAE719 |
|---|---|
| Flight time | N/A |
| Altitude | 35000 |
| Route | SOPOK Y863 OGLOR DCT EMGOD L607 UTABA DCT BEMKI DCT ELMEM DCT DIRAB DCT PEVAL DCT IPKIS DCT AIOSA/N0469F370 DCT XAPAT DCT NOSTO DCT SALUN N705 MMA P751 DASUM Y234 FYM M872 BOVET/N0474F390 M872 BDB Y214 RAPMA DCT KUVSO DCT KATIT DCT PEKEM M628 RIGIL G783 ELUDA/N0488F350 G783 ASPED Q308 KIPOK/N0490F340 Q568 IMPED |
| Aircraft | A339/H-SADE1E2E3GHIJ3J5M1P2RWXY/LB2D1 |
Departure
| Time | 2026-05-07 19:12 |
|---|---|
| Airport | Brussels Airport (EBBR) |
Arrival
| Time | N/A |
|---|---|
| Airport | Dubai International Airport (OMDB) |
| Time | Latitude | Longitude | Altitude | Speed | Heading |
|---|---|---|---|---|---|
| 2026-05-07 18:28 | 50.89976 | 4.48842 | 137 ft | 0 kts | 335° |
| 2026-05-07 18:51 | 50.89975 | 4.48842 | 137 ft | 2 kts | 335° |
| 2026-05-07 18:52 | 50.89962 | 4.48852 | 137 ft | 1 kts | 333° |
| 2026-05-07 18:52 | 50.89954 | 4.48858 | 138 ft | 1 kts | 333° |
| 2026-05-07 18:52 | 50.89946 | 4.48865 | 138 ft | 1 kts | 333° |
| 2026-05-07 18:52 | 50.89938 | 4.48871 | 139 ft | 1 kts | 333° |
| 2026-05-07 18:53 | 50.89930 | 4.48877 | 139 ft | 1 kts | 333° |
| 2026-05-07 18:53 | 50.89920 | 4.48886 | 140 ft | 2 kts | 340° |
| 2026-05-07 18:53 | 50.89909 | 4.48893 | 141 ft | 2 kts | 341° |
| 2026-05-07 18:53 | 50.89897 | 4.48899 | 141 ft | 2 kts | 341° |
| 2026-05-07 18:54 | 50.89883 | 4.48908 | 142 ft | 2 kts | 57° |
| 2026-05-07 18:54 | 50.89876 | 4.48891 | 142 ft | 2 kts | 69° |
| 2026-05-07 18:54 | 50.89875 | 4.48883 | 142 ft | 0 kts | 64° |
| 2026-05-07 18:58 | 50.89876 | 4.48888 | 142 ft | 1 kts | 65° |
| 2026-05-07 18:58 | 50.89881 | 4.48903 | 142 ft | 2 kts | 65° |
| 2026-05-07 18:58 | 50.89887 | 4.48927 | 142 ft | 3 kts | 66° |
| 2026-05-07 18:59 | 50.89896 | 4.48958 | 142 ft | 3 kts | 66° |
| 2026-05-07 18:59 | 50.89907 | 4.48993 | 142 ft | 4 kts | 65° |
| 2026-05-07 18:59 | 50.89925 | 4.49048 | 142 ft | 8 kts | 62° |
| 2026-05-07 18:59 | 50.89956 | 4.49148 | 141 ft | 11 kts | 66° |
| 2026-05-07 19:00 | 50.89984 | 4.49273 | 139 ft | 14 kts | 70° |
| 2026-05-07 19:00 | 50.90026 | 4.49405 | 137 ft | 12 kts | 57° |
| 2026-05-07 19:00 | 50.90048 | 4.49464 | 137 ft | 1 kts | 62° |
| 2026-05-07 19:00 | 50.90061 | 4.49503 | 137 ft | 6 kts | 62° |
| 2026-05-07 19:01 | 50.90086 | 4.49587 | 137 ft | 10 kts | 64° |
| 2026-05-07 19:01 | 50.90123 | 4.49708 | 137 ft | 14 kts | 64° |
| 2026-05-07 19:01 | 50.90178 | 4.49868 | 136 ft | 19 kts | 62° |
| 2026-05-07 19:01 | 50.90243 | 4.50070 | 125 ft | 22 kts | 64° |
| 2026-05-07 19:02 | 50.90258 | 4.50114 | 132 ft | 0 kts | 62° |
| 2026-05-07 19:02 | 50.90259 | 4.50117 | 130 ft | 2 kts | 62° |
| 2026-05-07 19:02 | 50.90276 | 4.50164 | 131 ft | 8 kts | 58° |
| 2026-05-07 19:02 | 50.90328 | 4.50242 | 132 ft | 13 kts | 33° |
| 2026-05-07 19:03 | 50.90427 | 4.50296 | 127 ft | 18 kts | 14° |
| 2026-05-07 19:03 | 50.90562 | 4.50349 | 124 ft | 22 kts | 13° |
| 2026-05-07 19:03 | 50.90632 | 4.50375 | 123 ft | 0 kts | 13° |
| 2026-05-07 19:04 | 50.90640 | 4.50379 | 123 ft | 4 kts | 14° |
| 2026-05-07 19:04 | 50.90684 | 4.50398 | 125 ft | 9 kts | 17° |
| 2026-05-07 19:05 | 50.90763 | 4.50433 | 124 ft | 14 kts | 14° |
| 2026-05-07 19:05 | 50.90871 | 4.50477 | 123 ft | 18 kts | 14° |
| 2026-05-07 19:05 | 50.90993 | 4.50527 | 121 ft | 18 kts | 14° |
| 2026-05-07 19:05 | 50.91042 | 4.50524 | 122 ft | 0 kts | 346° |
| 2026-05-07 19:06 | 50.91062 | 4.50519 | 123 ft | 5 kts | 350° |
| 2026-05-07 19:06 | 50.91100 | 4.50514 | 120 ft | 6 kts | 355° |
| 2026-05-07 19:07 | 50.91123 | 4.50511 | 122 ft | 0 kts | 355° |
| 2026-05-07 19:07 | 50.91130 | 4.50510 | 125 ft | 3 kts | 355° |
| 2026-05-07 19:07 | 50.91137 | 4.50507 | 125 ft | 0 kts | 350° |
| 2026-05-07 19:11 | 50.91138 | 4.50507 | 125 ft | 1 kts | 350° |
| 2026-05-07 19:11 | 50.91175 | 4.50491 | 121 ft | 8 kts | 338° |
| 2026-05-07 19:11 | 50.91230 | 4.50389 | 121 ft | 16 kts | 292° |
| 2026-05-07 19:11 | 50.91217 | 4.50148 | 123 ft | 35 kts | 250° |
| 2026-05-07 19:12 | 50.91007 | 4.49406 | 122 ft | 111 kts | 245° |
| 2026-05-07 19:12 | 50.90589 | 4.47975 | 130 ft | 172 kts | 245° |
| 2026-05-07 19:12 | 50.90075 | 4.46192 | 596 ft | 184 kts | 245° |
| 2026-05-07 19:12 | 50.89543 | 4.44366 | 1468 ft | 184 kts | 244° |
| 2026-05-07 19:13 | 50.89164 | 4.43167 | 2028 ft | 182 kts | 242° |
| 2026-05-07 19:13 | 50.88302 | 4.41033 | 3176 ft | 171 kts | 230° |
| 2026-05-07 19:13 | 50.87748 | 4.40101 | 3720 ft | 164 kts | 220° |
| 2026-05-07 19:13 | 50.86716 | 4.39033 | 3898 ft | 200 kts | 202° |
| 2026-05-07 19:14 | 50.85232 | 4.38487 | 3841 ft | 235 kts | 180° |
| 2026-05-07 19:14 | 50.83625 | 4.38919 | 4478 ft | 232 kts | 158° |
| 2026-05-07 19:14 | 50.82285 | 4.40234 | 5327 ft | 224 kts | 136° |
| 2026-05-07 19:14 | 50.81365 | 4.42211 | 5927 ft | 230 kts | 117° |
| 2026-05-07 19:15 | 50.80909 | 4.44742 | 6072 ft | 253 kts | 95° |
| 2026-05-07 19:15 | 50.80900 | 4.47646 | 6089 ft | 269 kts | 87° |
| 2026-05-07 19:15 | 50.80972 | 4.50630 | 6046 ft | 270 kts | 87° |
| 2026-05-07 19:15 | 50.81138 | 4.53580 | 6074 ft | 269 kts | 84° |
| 2026-05-07 19:16 | 50.80947 | 4.56505 | 6073 ft | 271 kts | 108° |
| 2026-05-07 19:16 | 50.80032 | 4.59037 | 6069 ft | 269 kts | 133° |
| 2026-05-07 19:16 | 50.78512 | 4.60816 | 6108 ft | 272 kts | 152° |
| 2026-05-07 19:16 | 50.76857 | 4.62275 | 6597 ft | 273 kts | 148° |
| 2026-05-07 19:17 | 50.75342 | 4.64034 | 6943 ft | 273 kts | 140° |
| 2026-05-07 19:17 | 50.73931 | 4.66048 | 7056 ft | 274 kts | 136° |
| 2026-05-07 19:17 | 50.72613 | 4.68216 | 7080 ft | 274 kts | 133° |
| 2026-05-07 19:17 | 50.71348 | 4.70485 | 7080 ft | 274 kts | 131° |
| 2026-05-07 19:18 | 50.70112 | 4.72786 | 7120 ft | 276 kts | 129° |
| 2026-05-07 19:18 | 50.69110 | 4.75375 | 7537 ft | 278 kts | 115° |
| 2026-05-07 19:18 | 50.68486 | 4.78256 | 8166 ft | 280 kts | 105° |
| 2026-05-07 19:18 | 50.67959 | 4.81213 | 8726 ft | 283 kts | 107° |
| 2026-05-07 19:19 | 50.67390 | 4.84235 | 9307 ft | 286 kts | 107° |
| 2026-05-07 19:19 | 50.66807 | 4.87258 | 9884 ft | 290 kts | 108° |
| 2026-05-07 19:19 | 50.66212 | 4.90277 | 10330 ft | 297 kts | 108° |
| 2026-05-07 19:19 | 50.65574 | 4.93484 | 10487 ft | 315 kts | 108° |
| 2026-05-07 19:20 | 50.64906 | 4.96856 | 10649 ft | 331 kts | 108° |
| 2026-05-07 19:20 | 50.64041 | 5.00288 | 10883 ft | 341 kts | 122° |
| 2026-05-07 19:20 | 50.62717 | 5.03394 | 11416 ft | 343 kts | 126° |
| 2026-05-07 19:20 | 50.61343 | 5.06485 | 11927 ft | 345 kts | 126° |
| 2026-05-07 19:21 | 50.59960 | 5.09590 | 12457 ft | 348 kts | 126° |
| 2026-05-07 19:21 | 50.58566 | 5.12737 | 12962 ft | 351 kts | 126° |
| 2026-05-07 19:21 | 50.57183 | 5.15874 | 13480 ft | 354 kts | 126° |
| 2026-05-07 19:21 | 50.55777 | 5.19070 | 13983 ft | 357 kts | 126° |
| 2026-05-07 19:22 | 50.54338 | 5.22337 | 14441 ft | 360 kts | 126° |